Time;durP1;ratioP1;P1;durP2;ratioP2;P2;SDS_P1;SDS_P2;PMS_P1;PMS_P2;Temp;Humidity;BMP_temperature;BMP_pressure;BME280_temperature;BME280_humidity;BME280_pressure;Samples;Min_cycle;Max_cycle;Signal;HPM_P1;HPM_P2
2021/06/26 00:00:14;;;;;;;5.15;3.47;;;15.70;99.90;;;;;;5033245;28;20112;-82
2021/06/26 00:02:40;;;;;;;5.43;4.18;;;15.70;99.90;;;;;;5033299;28;20033;-82
2021/06/26 00:05:08;;;;;;;3.58;3.28;;;15.60;99.90;;;;;;5033234;28;20128;-82
2021/06/26 00:07:34;;;;;;;5.22;3.90;;;15.60;99.90;;;;;;5031320;28;20110;-81
2021/06/26 00:10:00;;;;;;;4.65;3.72;;;15.60;99.90;;;;;;5039804;28;20433;-81
2021/06/26 00:12:26;;;;;;;5.20;3.60;;;15.60;99.90;;;;;;5049618;28;20473;-81
2021/06/26 00:14:52;;;;;;;3.33;2.85;;;15.50;99.90;;;;;;5032950;28;20040;-81
2021/06/26 00:17:18;;;;;;;3.90;3.58;;;15.50;99.90;;;;;;5037769;28;20523;-81
2021/06/26 00:19:44;;;;;;;4.20;3.65;;;15.50;99.90;;;;;;5052577;28;20091;-81
2021/06/26 00:22:10;;;;;;;3.92;3.60;;;15.40;99.90;;;;;;5052882;28;20029;-82
2021/06/26 00:24:36;;;;;;;4.03;3.15;;;15.40;99.90;;;;;;5052378;28;20079;-81
2021/06/26 00:27:02;;;;;;;5.68;3.92;;;15.30;99.90;;;;;;5052793;28;20028;-81
2021/06/26 00:29:27;;;;;;;6.70;3.60;;;15.20;99.90;;;;;;5050411;28;20115;-81
2021/06/26 00:31:53;;;;;;;7.22;4.28;;;15.20;99.90;;;;;;5046089;28;20448;-82
2021/06/26 00:34:19;;;;;;;4.18;3.78;;;15.20;99.90;;;;;;5032846;28;20037;-82
2021/06/26 00:36:45;;;;;;;10.05;4.35;;;15.20;99.90;;;;;;5032940;28;20680;-81
2021/06/26 00:39:12;;;;;;;3.78;3.45;;;15.20;99.90;;;;;;5032380;28;20462;-81
2021/06/26 00:41:38;;;;;;;3.78;3.42;;;15.10;99.90;;;;;;5032833;28;20033;-81
2021/06/26 00:44:09;;;;;;;4.88;3.95;;;15.10;99.90;;;;;;5032669;28;20025;-81
2021/06/26 00:46:36;;;;;;;5.50;4.05;;;15.00;99.90;;;;;;5032572;28;20466;-81
2021/06/26 00:49:03;;;;;;;5.38;3.15;;;15.00;99.90;;;;;;5032559;28;20017;-81
2021/06/26 00:51:29;;;;;;;4.78;3.63;;;14.90;99.90;;;;;;5040544;28;20116;-81
2021/06/26 00:53:55;;;;;;;4.13;3.20;;;14.90;99.90;;;;;;5035919;28;20557;-81
2021/06/26 00:56:21;;;;;;;5.65;4.10;;;14.90;99.90;;;;;;5051264;28;20082;-82
2021/06/26 00:58:47;;;;;;;9.18;5.65;;;14.80;99.90;;;;;;5052549;28;20029;-82
2021/06/26 01:01:13;;;;;;;4.90;4.20;;;14.80;99.90;;;;;;5052409;28;20100;-82
2021/06/26 01:03:39;;;;;;;7.47;3.90;;;14.90;99.90;;;;;;5051473;28;20025;-82
2021/06/26 01:06:05;;;;;;;3.72;3.38;;;14.80;99.90;;;;;;5042336;28;20036;-81
2021/06/26 01:08:31;;;;;;;5.15;3.50;;;14.80;99.90;;;;;;5042459;28;20029;-82
2021/06/26 01:10:57;;;;;;;6.10;4.10;;;14.80;99.90;;;;;;5051514;28;20029;-82
2021/06/26 01:13:24;;;;;;;3.97;3.58;;;14.80;99.90;;;;;;5046340;28;20029;-82
2021/06/26 01:15:51;;;;;;;5.82;3.80;;;14.80;99.90;;;;;;5041592;28;20057;-82
2021/06/26 01:18:17;;;;;;;4.43;3.40;;;14.80;99.90;;;;;;5040957;28;20432;-81
2021/06/26 01:20:43;;;;;;;13.93;3.88;;;14.80;99.90;;;;;;5044761;28;20067;-81
2021/06/26 01:23:12;;;;;;;7.82;3.40;;;14.70;99.90;;;;;;5041451;28;20021;-82
2021/06/26 01:25:39;;;;;;;6.47;3.42;;;14.70;99.90;;;;;;5044425;28;20025;-82
2021/06/26 01:28:04;;;;;;;13.55;4.70;;;14.70;99.90;;;;;;5053313;28;20044;-82
2021/06/26 01:30:32;;;;;;;6.70;3.67;;;14.70;99.90;;;;;;5054912;28;20064;-82
2021/06/26 01:32:59;;;;;;;5.03;4.03;;;14.60;99.90;;;;;;5054754;28;20082;-82
2021/06/26 01:35:25;;;;;;;4.88;3.65;;;14.60;99.90;;;;;;5055026;28;20029;-82
2021/06/26 01:37:51;;;;;;;5.72;4.13;;;14.60;99.90;;;;;;5054744;28;20025;-82
2021/06/26 01:40:20;;;;;;;6.78;3.85;;;14.60;99.90;;;;;;5054964;28;20035;-82
2021/06/26 01:42:47;;;;;;;8.83;4.30;;;14.70;99.90;;;;;;5054738;28;20484;-82
2021/06/26 01:45:15;;;;;;;9.80;3.80;;;14.70;99.90;;;;;;5044872;28;20025;-81
2021/06/26 01:47:52;;;;;;;4.22;3.70;;;14.50;99.90;;;;;;5054743;28;20060;-82
2021/06/26 01:50:20;;;;;;;5.70;3.65;;;14.30;99.90;;;;;;5054601;28;20063;-82
2021/06/26 01:52:47;;;;;;;3.83;3.40;;;14.40;99.90;;;;;;5047742;28;20397;-82
2021/06/26 01:55:14;;;;;;;6.43;3.80;;;14.30;99.90;;;;;;5034753;28;20029;-82
2021/06/26 01:57:41;;;;;;;4.78;3.70;;;14.30;99.90;;;;;;5034735;28;20033;-82
2021/06/26 02:00:07;;;;;;;5.95;3.80;;;14.40;99.90;;;;;;5044874;28;20037;-82
2021/06/26 02:02:33;;;;;;;7.13;3.72;;;14.40;99.90;;;;;;5054326;28;20120;-82
2021/06/26 02:04:59;;;;;;;5.18;4.18;;;14.30;99.90;;;;;;5054233;28;20490;-82
2021/06/26 02:07:25;;;;;;;7.53;3.53;;;14.40;99.90;;;;;;5054531;28;20021;-82
2021/06/26 02:09:50;;;;;;;6.63;4.63;;;14.20;99.90;;;;;;5052723;28;20078;-82
2021/06/26 02:12:16;;;;;;;4.30;3.88;;;14.20;99.90;;;;;;5054218;28;20031;-82
2021/06/26 02:14:42;;;;;;;6.55;4.50;;;14.20;99.90;;;;;;5053420;28;20104;-82
2021/06/26 02:17:08;;;;;;;8.52;4.50;;;14.30;99.90;;;;;;5053340;28;20108;-81
2021/06/26 02:19:34;;;;;;;4.07;3.75;;;14.30;99.90;;;;;;5044887;28;20081;-82
2021/06/26 02:21:59;;;;;;;4.28;3.88;;;14.40;99.90;;;;;;5048325;28;20036;-82
2021/06/26 02:24:25;;;;;;;5.88;3.60;;;14.40;99.90;;;;;;5054125;28;20099;-82
2021/06/26 02:26:51;;;;;;;3.78;3.47;;;14.30;99.90;;;;;;5052835;28;20025;-82
2021/06/26 02:29:17;;;;;;;4.20;3.80;;;14.30;99.90;;;;;;5054133;28;20523;-82
2021/06/26 02:31:44;;;;;;;3.53;3.20;;;14.30;99.90;;;;;;5054230;28;20036;-82
2021/06/26 02:34:13;;;;;;;7.40;4.30;;;14.20;99.90;;;;;;5039850;28;20021;-82
2021/06/26 02:36:39;;;;;;;4.32;3.80;;;14.20;99.90;;;;;;5033974;28;20481;-82
2021/06/26 02:39:05;;;;;;;6.60;4.85;;;14.20;99.90;;;;;;5034003;28;20031;-82
2021/06/26 02:41:31;;;;;;;4.97;4.13;;;14.20;99.90;;;;;;5033787;28;20040;-82
2021/06/26 02:43:56;;;;;;;7.15;3.90;;;14.30;99.90;;;;;;5031324;28;20504;-82
2021/06/26 02:46:22;;;;;;;5.30;4.43;;;14.30;99.90;;;;;;5034991;28;20025;-81
2021/06/26 02:48:48;;;;;;;4.28;3.58;;;14.30;99.90;;;;;;5033363;28;20080;-82
2021/06/26 02:51:14;;;;;;;9.50;4.53;;;14.20;99.90;;;;;;5035719;28;20489;-81
2021/06/26 02:53:39;;;;;;;7.95;3.90;;;14.10;99.90;;;;;;5053556;28;20515;-82
2021/06/26 02:56:05;;;;;;;4.35;3.17;;;14.00;99.90;;;;;;5053266;28;20044;-82
2021/06/26 02:58:32;;;;;;;5.60;4.30;;;13.60;99.90;;;;;;5053423;28;20025;-82
2021/06/26 03:00:57;;;;;;;4.53;4.13;;;13.80;99.90;;;;;;5053348;28;20117;-81
2021/06/26 03:03:23;;;;;;;5.95;4.40;;;13.90;99.90;;;;;;5052955;28;20104;-81
2021/06/26 03:05:49;;;;;;;5.65;3.80;;;14.00;99.90;;;;;;5044120;28;20493;-81
2021/06/26 03:08:15;;;;;;;4.50;3.75;;;13.90;99.90;;;;;;5050070;28;20027;-81
2021/06/26 03:10:40;;;;;;;6.25;3.78;;;13.90;99.90;;;;;;5053221;28;20025;-81
2021/06/26 03:13:06;;;;;;;4.35;3.85;;;13.90;99.90;;;;;;5051873;28;20112;-82
2021/06/26 03:15:32;;;;;;;7.18;4.18;;;13.90;99.90;;;;;;5052324;28;20040;-82
2021/06/26 03:17:58;;;;;;;6.22;4.05;;;13.90;99.90;;;;;;5051604;28;20079;-82
2021/06/26 03:20:24;;;;;;;4.38;4.03;;;13.90;99.90;;;;;;5049554;28;20054;-82
2021/06/26 03:22:50;;;;;;;8.23;3.70;;;13.90;99.90;;;;;;5032848;28;20068;-82
2021/06/26 03:25:15;;;;;;;6.38;4.32;;;13.90;99.90;;;;;;5032657;28;20033;-82
2021/06/26 03:27:42;;;;;;;5.45;3.70;;;13.90;99.90;;;;;;5032986;28;20596;-81
2021/06/26 03:30:08;;;;;;;6.47;3.42;;;14.00;99.90;;;;;;5032721;28;20033;-82
2021/06/26 03:32:34;;;;;;;5.80;4.05;;;13.90;99.90;;;;;;5032648;28;20508;-81
2021/06/26 03:35:00;;;;;;;4.43;3.85;;;14.00;99.90;;;;;;5032796;28;20525;-82
2021/06/26 03:37:27;;;;;;;4.13;3.83;;;13.90;99.90;;;;;;5032774;28;20120;-81
2021/06/26 03:39:52;;;;;;;4.78;3.40;;;14.00;99.90;;;;;;5032897;28;20026;-82
2021/06/26 03:42:18;;;;;;;4.25;3.85;;;13.90;99.90;;;;;;5030667;28;20503;-82
2021/06/26 03:44:44;;;;;;;4.65;3.70;;;14.00;99.90;;;;;;5041286;28;20377;-82
2021/06/26 03:47:10;;;;;;;4.57;3.95;;;14.10;99.90;;;;;;5038135;28;20053;-82
2021/06/26 03:49:38;;;;;;;4.32;4.03;;;14.00;99.90;;;;;;5052652;28;20400;-82
2021/06/26 03:52:05;;;;;;;4.15;3.80;;;14.00;99.90;;;;;;5052356;28;20031;-82
2021/06/26 03:54:31;;;;;;;5.35;4.15;;;13.90;99.90;;;;;;5052488;28;20078;-81
2021/06/26 03:56:57;;;;;;;9.13;3.65;;;13.80;99.90;;;;;;5046722;28;20378;-82
2021/06/26 03:59:23;;;;;;;5.32;3.78;;;13.80;99.90;;;;;;5032465;28;20469;-82
2021/06/26 04:01:49;;;;;;;4.35;3.92;;;13.90;99.90;;;;;;5030984;28;20022;-82
2021/06/26 04:04:15;;;;;;;4.28;3.92;;;13.80;99.90;;;;;;5032039;28;20494;-82
2021/06/26 04:06:41;;;;;;;6.53;3.67;;;13.80;99.90;;;;;;5032541;28;20232;-82
2021/06/26 04:09:06;;;;;;;4.38;4.07;;;13.80;99.90;;;;;;5044514;28;20048;-81
2021/06/26 04:11:32;;;;;;;4.20;3.70;;;13.80;99.90;;;;;;5052334;28;20017;-81
2021/06/26 04:13:58;;;;;;;4.38;3.97;;;13.80;99.90;;;;;;5041342;28;20033;-82
2021/06/26 04:16:24;;;;;;;6.95;3.55;;;13.80;99.90;;;;;;5044165;28;20079;-81
2021/06/26 04:18:49;;;;;;;4.70;3.80;;;13.70;99.90;;;;;;5032171;28;20139;-82
2021/06/26 04:21:15;;;;;;;4.25;3.70;;;13.70;99.90;;;;;;5032321;28;20478;-81
2021/06/26 04:23:41;;;;;;;5.50;4.03;;;13.70;99.90;;;;;;5032500;28;20037;-82
2021/06/26 04:26:07;;;;;;;5.85;3.28;;;13.70;99.90;;;;;;5032205;28;20485;-82
2021/06/26 04:28:33;;;;;;;4.25;3.80;;;13.70;99.90;;;;;;5032043;28;20381;-82
2021/06/26 04:30:58;;;;;;;4.13;3.75;;;13.70;99.90;;;;;;5031145;28;20036;-82
2021/06/26 04:33:28;;;;;;;5.13;3.50;;;13.80;99.90;;;;;;5032243;28;20105;-82
2021/06/26 04:35:54;;;;;;;5.13;4.28;;;13.80;99.90;;;;;;5032136;28;20476;-81
2021/06/26 04:38:23;;;;;;;6.40;3.95;;;13.80;99.90;;;;;;5030816;28;20107;-81
2021/06/26 04:40:52;;;;;;;4.10;3.80;;;13.70;99.90;;;;;;5033957;28;20037;-82
2021/06/26 04:43:19;;;;;;;8.68;3.78;;;13.80;99.90;;;;;;5038421;28;20551;-81
2021/06/26 04:45:46;;;;;;;11.75;4.50;;;13.70;99.90;;;;;;5055521;28;20033;-82
2021/06/26 04:48:15;;;;;;;6.65;4.25;;;13.80;99.90;;;;;;5055729;28;20071;-82
2021/06/26 04:50:41;;;;;;;4.57;4.15;;;13.80;99.90;;;;;;5055802;28;20052;-81
2021/06/26 04:53:07;;;;;;;6.03;4.05;;;13.80;99.90;;;;;;5055864;28;20033;-81
2021/06/26 04:55:32;;;;;;;4.68;4.30;;;13.80;99.90;;;;;;5055903;28;20049;-81
2021/06/26 04:57:58;;;;;;;5.32;3.67;;;14.00;99.90;;;;;;5052841;28;20033;-81
2021/06/26 05:00:24;;;;;;;4.32;3.97;;;14.00;99.90;;;;;;5046760;28;20401;-81
2021/06/26 05:02:50;;;;;;;6.25;3.90;;;14.00;99.90;;;;;;5035681;28;20063;-81
2021/06/26 05:05:15;;;;;;;5.32;4.15;;;14.10;99.90;;;;;;5035547;28;20032;-82
2021/06/26 05:07:41;;;;;;;4.18;3.72;;;14.10;99.90;;;;;;5036064;28;20026;-82
2021/06/26 05:10:07;;;;;;;5.93;3.40;;;14.10;99.90;;;;;;5050434;28;20029;-82
2021/06/26 05:12:33;;;;;;;7.13;3.65;;;14.20;99.90;;;;;;5034715;28;20079;-82
2021/06/26 05:14:59;;;;;;;6.28;3.58;;;14.00;99.90;;;;;;5050063;28;20488;-81
2021/06/26 05:17:25;;;;;;;26.45;4.85;;;14.10;99.90;;;;;;5055361;28;20029;-82
2021/06/26 05:19:50;;;;;;;5.35;3.22;;;14.10;99.90;;;;;;5053859;28;20041;-82
2021/06/26 05:22:16;;;;;;;4.03;3.72;;;14.00;99.90;;;;;;5053845;28;20021;-82
2021/06/26 05:24:42;;;;;;;7.35;4.00;;;14.10;99.90;;;;;;5055154;28;20021;-81
2021/06/26 05:27:08;;;;;;;4.88;4.32;;;14.10;99.90;;;;;;5052270;28;20888;-82
2021/06/26 05:29:40;;;;;;;5.82;4.32;;;14.20;99.90;;;;;;5034923;28;20048;-81
2021/06/26 05:32:06;;;;;;;5.00;3.75;;;14.40;99.90;;;;;;5035092;28;20099;-82
2021/06/26 05:34:32;;;;;;;4.72;4.32;;;14.40;99.90;;;;;;5035500;28;20032;-82
2021/06/26 05:36:58;;;;;;;11.40;5.32;;;14.40;99.90;;;;;;5035104;28;20034;-82
2021/06/26 05:39:23;;;;;;;5.75;4.10;;;14.40;99.90;;;;;;5034668;28;20056;-81
2021/06/26 05:41:49;;;;;;;6.03;4.03;;;14.30;99.90;;;;;;5034918;28;20532;-81
2021/06/26 05:44:15;;;;;;;5.10;4.05;;;14.30;99.90;;;;;;5034552;28;20105;-81
2021/06/26 05:46:40;;;;;;;5.93;4.93;;;14.30;99.90;;;;;;5034733;28;20375;-81
2021/06/26 05:49:06;;;;;;;4.45;4.13;;;14.40;99.90;;;;;;5034909;28;20037;-82
2021/06/26 05:51:32;;;;;;;5.60;5.20;;;14.50;99.90;;;;;;5034871;28;20021;-82
2021/06/26 05:53:58;;;;;;;8.00;5.18;;;14.70;99.90;;;;;;5034790;28;20025;-82
2021/06/26 05:56:24;;;;;;;4.72;4.30;;;14.70;99.90;;;;;;5038667;28;20484;-82
2021/06/26 05:58:50;;;;;;;5.22;4.50;;;14.70;99.90;;;;;;5035712;28;20021;-81
2021/06/26 06:01:15;;;;;;;5.30;4.30;;;14.80;99.90;;;;;;5034472;28;20075;-81
2021/06/26 06:03:41;;;;;;;4.95;4.55;;;14.70;99.90;;;;;;5034559;28;20025;-81
2021/06/26 06:06:07;;;;;;;6.55;4.97;;;14.70;99.90;;;;;;5033228;28;20033;-81
2021/06/26 06:08:33;;;;;;;6.57;4.95;;;14.80;99.90;;;;;;5041914;28;20040;-82
2021/06/26 06:11:02;;;;;;;8.02;5.50;;;15.00;99.90;;;;;;5039252;28;20033;-82
2021/06/26 06:13:28;;;;;;;11.63;5.07;;;15.00;99.90;;;;;;5048971;28;20063;-82
2021/06/26 06:15:54;;;;;;;5.60;4.65;;;15.00;99.90;;;;;;5034520;28;20469;-81
2021/06/26 06:18:20;;;;;;;6.80;5.32;;;15.00;99.90;;;;;;5034174;28;20022;-81
2021/06/26 06:20:47;;;;;;;8.10;5.30;;;15.20;99.90;;;;;;5034293;28;20474;-81
2021/06/26 06:23:13;;;;;;;6.32;4.88;;;15.30;99.90;;;;;;5034120;28;20480;-81
2021/06/26 06:25:39;;;;;;;4.85;4.07;;;15.40;99.90;;;;;;5033794;28;20065;-82
2021/06/26 06:28:05;;;;;;;5.28;4.32;;;15.30;99.90;;;;;;5037688;28;20057;-81
2021/06/26 06:30:32;;;;;;;4.93;4.53;;;15.40;99.90;;;;;;5053315;28;20032;-82
2021/06/26 06:32:59;;;;;;;6.95;5.07;;;15.50;99.90;;;;;;5054021;28;20021;-81
2021/06/26 06:35:25;;;;;;;5.50;4.95;;;15.50;99.90;;;;;;5053681;28;20031;-82
2021/06/26 06:37:51;;;;;;;6.00;4.82;;;15.70;99.90;;;;;;5053849;28;20053;-82
2021/06/26 06:40:17;;;;;;;5.68;5.05;;;15.90;99.90;;;;;;5053689;28;20118;-82
2021/06/26 06:42:43;;;;;;;10.93;5.45;;;16.00;99.90;;;;;;5044778;28;20367;-82
2021/06/26 06:45:10;;;;;;;6.35;4.32;;;16.20;99.90;;;;;;5037748;28;20109;-82
2021/06/26 06:47:37;;;;;;;5.03;4.22;;;16.30;99.90;;;;;;5034111;28;20049;-81
2021/06/26 06:50:04;;;;;;;4.95;4.47;;;16.50;99.90;;;;;;5046737;28;20036;-81
2021/06/26 06:52:30;;;;;;;4.97;4.57;;;16.60;99.90;;;;;;5061051;28;20113;-81
2021/06/26 06:54:56;;;;;;;6.20;4.68;;;16.80;99.90;;;;;;5057273;28;20451;-81
2021/06/26 06:57:23;;;;;;;7.78;4.70;;;17.00;99.90;;;;;;5053508;28;20096;-82
2021/06/26 06:59:50;;;;;;;4.35;3.95;;;17.10;99.90;;;;;;5058036;28;20336;-82
2021/06/26 07:02:16;;;;;;;4.28;3.83;;;17.30;99.90;;;;;;5051638;28;20092;-81
2021/06/26 07:04:42;;;;;;;5.32;4.43;;;17.50;99.90;;;;;;5051729;28;20036;-81
2021/06/26 07:07:08;;;;;;;4.80;4.07;;;17.70;99.90;;;;;;5057836;28;20020;-81
2021/06/26 07:09:34;;;;;;;5.03;3.63;;;17.80;99.90;;;;;;5050770;28;20083;-82
2021/06/26 07:12:00;;;;;;;5.50;4.60;;;18.00;99.90;;;;;;5037350;28;20496;-82
2021/06/26 07:14:26;;;;;;;6.20;4.57;;;18.10;99.90;;;;;;5052898;28;20091;-82
2021/06/26 07:16:53;;;;;;;5.55;4.50;;;18.30;99.90;;;;;;5052657;28;20025;-82
2021/06/26 07:19:18;;;;;;;5.75;4.05;;;18.40;99.90;;;;;;5052206;28;20417;-82
2021/06/26 07:21:44;;;;;;;4.45;4.05;;;18.50;99.90;;;;;;5035887;28;20025;-82
2021/06/26 07:24:10;;;;;;;4.07;3.75;;;18.60;99.90;;;;;;5051977;28;20037;-82
2021/06/26 07:26:36;;;;;;;3.83;3.53;;;18.70;99.90;;;;;;5043692;28;20018;-82
2021/06/26 07:29:03;;;;;;;3.45;3.20;;;18.90;99.90;;;;;;5032648;28;20034;-82
2021/06/26 07:31:29;;;;;;;4.72;3.40;;;19.20;99.90;;;;;;5032975;28;20496;-82
2021/06/26 07:33:55;;;;;;;7.18;3.10;;;19.50;99.90;;;;;;5050914;28;20068;-81
2021/06/26 07:36:20;;;;;;;6.07;3.53;;;19.50;99.90;;;;;;5051207;28;20049;-82
2021/06/26 07:38:46;;;;;;;7.90;3.42;;;19.70;99.90;;;;;;5045649;28;20025;-82
2021/06/26 07:41:13;;;;;;;4.07;2.83;;;19.90;99.90;;;;;;5032667;28;20026;-82
2021/06/26 07:43:40;;;;;;;5.57;2.80;;;20.00;99.90;;;;;;5042767;28;20037;-82
2021/06/26 07:46:07;;;;;;;4.03;3.00;;;20.30;99.90;;;;;;5041261;28;20392;-80
2021/06/26 07:48:33;;;;;;;3.15;2.95;;;20.30;99.90;;;;;;5035550;28;20025;-80
2021/06/26 07:50:59;;;;;;;3.55;3.25;;;20.30;99.90;;;;;;5051326;28;20047;-81
2021/06/26 07:53:25;;;;;;;3.50;3.17;;;20.50;99.90;;;;;;5033730;28;20143;-81
2021/06/26 07:55:51;;;;;;;3.50;3.20;;;20.60;99.90;;;;;;5032609;28;20398;-81
2021/06/26 07:58:27;;;;;;;3.20;3.00;;;20.70;99.90;;;;;;5032789;28;20064;-81
2021/06/26 08:00:55;;;;;;;4.20;3.28;;;20.70;99.90;;;;;;5032478;28;20030;-81
2021/06/26 08:03:21;;;;;;;4.88;3.22;;;21.00;99.90;;;;;;5032534;28;20133;-81
2021/06/26 08:05:48;;;;;;;3.80;3.13;;;21.10;99.90;;;;;;5032506;28;20397;-81
2021/06/26 08:08:14;;;;;;;3.63;3.10;;;21.10;99.90;;;;;;5036972;28;20436;-81
2021/06/26 08:10:40;;;;;;;5.55;3.33;;;21.20;99.90;;;;;;5052287;28;20031;-81
2021/06/26 08:13:07;;;;;;;4.05;3.20;;;21.30;99.90;;;;;;5052387;28;20480;-81
2021/06/26 08:15:36;;;;;;;4.53;3.10;;;21.40;99.90;;;;;;5055138;28;20481;-81
2021/06/26 08:18:04;;;;;;;3.95;3.13;;;21.40;99.90;;;;;;5056478;28;20033;-81
2021/06/26 08:20:30;;;;;;;3.08;2.88;;;21.50;99.90;;;;;;5056346;28;20045;-81
2021/06/26 08:22:57;;;;;;;4.03;3.08;;;21.60;99.90;;;;;;5055907;28;20036;-81
2021/06/26 08:25:23;;;;;;;4.97;3.05;;;21.60;99.90;;;;;;5056428;28;20389;-81
2021/06/26 08:27:48;;;;;;;3.20;2.90;;;21.80;99.90;;;;;;5056321;28;20483;-81
2021/06/26 08:30:15;;;;;;;8.07;4.22;;;21.90;99.90;;;;;;5056351;28;20025;-81
2021/06/26 08:32:42;;;;;;;5.47;3.97;;;22.00;99.90;;;;;;5056124;28;20025;-81
2021/06/26 08:35:09;;;;;;;4.95;3.40;;;22.20;99.90;;;;;;5056284;28;20564;-81
2021/06/26 08:37:35;;;;;;;3.40;3.10;;;22.20;99.90;;;;;;5055720;28;20029;-81
2021/06/26 08:40:01;;;;;;;3.47;3.17;;;22.40;99.90;;;;;;5056192;28;20481;-81
2021/06/26 08:42:27;;;;;;;3.90;2.80;;;22.60;99.90;;;;;;5056182;28;20047;-81
2021/06/26 08:45:01;;;;;;;3.38;3.10;;;22.80;99.90;;;;;;5055865;28;20021;-81
2021/06/26 08:47:27;;;;;;;4.32;4.03;;;22.90;99.90;;;;;;5055971;28;20025;-81
2021/06/26 08:49:54;;;;;;;3.63;3.33;;;22.90;99.90;;;;;;5054451;28;20053;-81
2021/06/26 08:52:20;;;;;;;5.45;3.80;;;23.10;99.90;;;;;;5055724;28;20028;-81
2021/06/26 08:54:50;;;;;;;3.83;3.47;;;23.40;99.90;;;;;;5055695;28;20477;-81
2021/06/26 08:57:32;;;;;;;4.10;3.13;;;23.50;99.90;;;;;;5055819;28;20091;-81
2021/06/26 08:59:59;;;;;;;3.20;3.00;;;23.60;99.90;;;;;;5055646;28;20017;-81
2021/06/26 09:02:26;;;;;;;3.53;3.25;;;23.60;99.90;;;;;;5055853;28;20025;-81
2021/06/26 09:04:52;;;;;;;3.72;3.42;;;23.80;99.90;;;;;;5055300;28;20055;-81
2021/06/26 09:07:28;;;;;;;4.05;3.55;;;24.10;99.90;;;;;;5055305;28;20025;-81
2021/06/26 09:09:56;;;;;;;3.75;3.08;;;24.30;99.90;;;;;;5055375;28;20477;-81
2021/06/26 09:12:22;;;;;;;4.32;3.00;;;24.50;99.90;;;;;;5055546;28;20078;-81
2021/06/26 09:14:48;;;;;;;3.42;3.13;;;24.70;99.90;;;;;;5055199;28;20028;-81
2021/06/26 09:17:18;;;;;;;3.28;2.97;;;24.90;99.90;;;;;;5055459;28;20029;-81
2021/06/26 09:19:53;;;;;;;;;;;24.90;99.90;;;;;;5055388;28;20416;-80
2021/06/26 09:22:19;;;;;;;4.70;2.85;;;24.90;99.90;;;;;;5055264;28;20047;-81
2021/06/26 09:24:51;;;;;;;3.65;3.30;;;25.00;99.90;;;;;;5054985;28;20540;-81
2021/06/26 09:27:20;;;;;;;3.35;2.72;;;24.90;99.90;;;;;;5053780;28;20033;-80
2021/06/26 09:29:54;;;;;;;3.60;3.30;;;25.10;99.90;;;;;;5055314;28;20144;-81
2021/06/26 09:32:28;;;;;;;2.90;2.70;;;25.20;99.90;;;;;;5055315;28;20049;-81
2021/06/26 09:34:55;;;;;;;3.45;2.88;;;25.50;99.90;;;;;;5054693;28;20036;-81
2021/06/26 09:37:23;;;;;;;3.42;3.13;;;25.50;99.90;;;;;;5054866;28;20162;-81
2021/06/26 09:39:55;;;;;;;3.15;2.85;;;25.70;99.90;;;;;;5055063;28;20029;-81
2021/06/26 09:42:25;;;;;;;3.08;2.78;;;25.60;99.90;;;;;;5055138;28;20500;-80
2021/06/26 09:45:03;;;;;;;5.47;2.60;;;25.40;99.90;;;;;;5054683;28;20036;-80
2021/06/26 09:47:30;;;;;;;3.00;2.80;;;25.60;99.90;;;;;;5054867;28;20088;-80
2021/06/26 09:50:13;;;;;;;3.03;2.70;;;25.80;99.90;;;;;;5054580;28;20052;-81
2021/06/26 09:52:42;;;;;;;2.65;2.47;;;26.30;99.90;;;;;;5054835;28;20393;-80
2021/06/26 09:55:13;;;;;;;3.60;3.30;;;26.30;99.90;;;;;;5054675;28;20056;-80
2021/06/26 09:57:39;;;;;;;4.55;2.95;;;26.50;99.90;;;;;;5054855;28;20025;-80
2021/06/26 10:00:05;;;;;;;3.30;3.00;;;26.80;99.90;;;;;;5054427;28;20013;-80
2021/06/26 10:02:31;;;;;;;5.10;2.90;;;26.30;99.90;;;;;;5054531;28;20407;-80
2021/06/26 10:04:57;;;;;;;3.78;2.40;;;26.40;99.90;;;;;;5054124;28;20017;-80
2021/06/26 10:07:23;;;;;;;3.83;2.80;;;26.10;99.90;;;;;;5054531;28;20027;-80
2021/06/26 10:09:50;;;;;;;3.38;2.70;;;26.30;99.90;;;;;;5054344;28;20025;-80
2021/06/26 10:12:16;;;;;;;3.72;2.55;;;26.10;99.90;;;;;;5054352;28;20025;-80
2021/06/26 10:14:42;;;;;;;2.88;2.67;;;26.30;99.90;;;;;;5054251;28;20021;-81
2021/06/26 10:17:09;;;;;;;6.35;3.08;;;26.60;99.90;;;;;;5054384;28;20033;-81
2021/06/26 10:19:36;;;;;;;4.00;2.47;;;27.00;99.90;;;;;;5053853;28;20071;-80
2021/06/26 10:22:02;;;;;;;3.17;2.88;;;26.90;99.90;;;;;;5054082;28;20068;-81
2021/06/26 10:24:29;;;;;;;9.38;3.35;;;26.80;99.90;;;;;;5054143;28;20044;-80
2021/06/26 10:26:54;;;;;;;3.25;2.97;;;27.30;99.90;;;;;;5054137;28;20082;-81
2021/06/26 10:29:32;;;;;;;9.52;3.33;;;30.50;99.90;;;;;;5054060;28;20025;-80
2021/06/26 10:32:09;;;;;;;3.30;3.10;;;33.00;97.60;;;;;;5053737;28;20108;-80
2021/06/26 10:34:44;;;;;;;3.30;3.10;;;33.10;92.50;;;;;;5053997;28;20487;-81
2021/06/26 10:37:21;;;;;;;3.00;2.80;;;34.10;90.30;;;;;;5052919;28;20033;-80
2021/06/26 10:40:00;;;;;;;3.88;3.58;;;34.50;87.30;;;;;;5054179;28;20032;-81
2021/06/26 10:42:35;;;;;;;2.85;2.70;;;34.10;85.10;;;;;;5053928;28;20473;-81
2021/06/26 10:45:03;;;;;;;3.17;2.85;;;34.40;84.60;;;;;;5053762;28;20481;-81
2021/06/26 10:47:37;;;;;;;3.92;3.00;;;35.00;81.40;;;;;;5053302;28;20036;-81
2021/06/26 10:50:20;;;;;;;3.53;3.22;;;35.20;82.00;;;;;;5053587;28;20047;-81
2021/06/26 10:52:54;;;;;;;3.00;2.80;;;36.20;79.00;;;;;;5053627;28;20017;-81
2021/06/26 10:55:30;;;;;;;4.65;3.53;;;37.70;71.60;;;;;;5053361;28;20033;-81
2021/06/26 10:57:58;;;;;;;4.28;3.33;;;36.40;68.10;;;;;;5053572;28;20020;-81
2021/06/26 11:00:33;;;;;;;3.15;2.92;;;35.70;70.30;;;;;;5053474;28;20036;-81
2021/06/26 11:03:00;;;;;;;3.40;3.20;;;36.40;69.80;;;;;;5053037;28;20048;-81
2021/06/26 11:05:34;;;;;;;4.15;3.40;;;36.30;66.40;;;;;;5053304;28;20023;-81
2021/06/26 11:08:01;;;;;;;3.08;2.88;;;37.00;65.30;;;;;;5053140;28;20044;-81
2021/06/26 11:10:27;;;;;;;4.13;3.28;;;36.40;65.00;;;;;;5053182;28;20025;-81
2021/06/26 11:12:53;;;;;;;3.72;3.40;;;37.70;65.30;;;;;;5053282;28;20457;-81
2021/06/26 11:15:31;;;;;;;3.30;3.03;;;38.60;64.20;;;;;;5053093;28;20029;-81
2021/06/26 11:17:57;;;;;;;3.47;3.28;;;39.00;57.70;;;;;;5053199;28;20499;-81
2021/06/26 11:20:24;;;;;;;3.90;3.70;;;38.20;55.20;;;;;;5052949;28;20400;-81
2021/06/26 11:22:58;;;;;;;6.70;3.03;;;37.50;56.80;;;;;;5052904;28;20033;-81
2021/06/26 11:25:29;;;;;;;3.80;3.50;;;38.30;56.40;;;;;;5052932;28;20079;-81
2021/06/26 11:28:13;;;;;;;5.03;3.13;;;37.90;53.40;;;;;;5052891;28;20049;-81
2021/06/26 11:30:43;;;;;;;4.60;2.95;;;37.80;56.00;;;;;;5052818;28;20021;-81
2021/06/26 11:33:09;;;;;;;5.22;3.30;;;39.10;54.10;;;;;;5052872;28;20036;-81
2021/06/26 11:35:37;;;;;;;4.07;3.67;;;39.30;46.80;;;;;;5052655;28;20025;-81
2021/06/26 11:38:05;;;;;;;3.35;3.15;;;38.50;46.10;;;;;;5052841;28;20033;-81
2021/06/26 11:40:32;;;;;;;3.78;3.35;;;37.70;50.30;;;;;;5051550;28;20029;-81
2021/06/26 11:43:02;;;;;;;3.10;2.90;;;37.30;50.40;;;;;;5052886;28;20035;-81
2021/06/26 11:45:37;;;;;;;3.60;3.20;;;37.60;46.50;;;;;;5051061;28;20554;-82
2021/06/26 11:48:13;;;;;;;3.50;3.20;;;38.80;47.40;;;;;;5052390;28;20027;-81
2021/06/26 11:50:55;;;;;;;4.60;3.40;;;39.80;44.00;;;;;;5052589;28;20032;-81
2021/06/26 11:53:23;;;;;;;3.72;3.35;;;39.60;47.80;;;;;;5052519;28;20032;-81
2021/06/26 11:56:03;;;;;;;3.72;3.42;;;41.10;43.70;;;;;;5051562;28;20414;-81
2021/06/26 11:58:36;;;;;;;3.05;2.85;;;40.10;38.40;;;;;;5052684;28;20036;-81
2021/06/26 12:01:12;;;;;;;3.90;3.15;;;37.50;41.60;;;;;;5052198;28;20082;-81
2021/06/26 12:03:39;;;;;;;3.80;3.50;;;34.30;49.60;;;;;;5052633;28;20079;-81
2021/06/26 12:06:10;;;;;;;6.50;3.30;;;37.50;47.10;;;;;;5052461;28;20572;-80
2021/06/26 12:08:54;;;;;;;3.25;3.05;;;38.50;44.80;;;;;;5052260;28;20117;-80
2021/06/26 12:11:22;;;;;;;3.40;3.10;;;39.00;38.10;;;;;;5052441;28;20025;-80
2021/06/26 12:13:50;;;;;;;3.45;3.15;;;39.70;37.90;;;;;;5052064;28;20044;-80
2021/06/26 12:16:21;;;;;;;3.15;2.88;;;39.60;33.20;;;;;;5052406;28;20392;-80
2021/06/26 12:19:05;;;;;;;4.32;2.80;;;39.90;31.20;;;;;;5050904;28;20456;-79
2021/06/26 12:21:46;;;;;;;3.05;2.80;;;38.10;31.90;;;;;;5052411;28;20635;-79
2021/06/26 12:24:36;;;;;;;4.40;3.00;;;38.90;31.70;;;;;;5052156;28;20029;-79
2021/06/26 12:27:23;;;;;;;2.90;2.67;;;40.00;27.60;;;;;;5051147;28;20033;-79
2021/06/26 12:29:59;;;;;;;3.15;2.92;;;40.30;27.70;;;;;;5052140;28;20086;-79
2021/06/26 12:32:26;;;;;;;2.83;2.63;;;40.80;24.50;;;;;;5052358;28;20044;-79
2021/06/26 12:34:51;;;;;;;4.30;3.60;;;38.70;27.80;;;;;;5052191;28;20064;-79
2021/06/26 12:37:29;;;;;;;3.03;2.83;;;38.90;30.70;;;;;;5052098;28;20053;-79
2021/06/26 12:40:04;;;;;;;11.60;3.53;;;40.30;27.90;;;;;;5052043;28;20036;-79
2021/06/26 12:42:29;;;;;;;4.47;3.33;;;40.90;28.60;;;;;;5052022;28;20031;-79
2021/06/26 12:45:00;;;;;;;3.47;3.22;;;40.40;25.30;;;;;;5052341;28;20032;-79
2021/06/26 12:47:26;;;;;;;3.25;3.00;;;40.40;23.30;;;;;;5052283;28;20047;-79
2021/06/26 12:50:10;;;;;;;3.25;2.97;;;40.90;23.80;;;;;;5052199;28;20473;-79